Time;durP1;ratioP1;P1;durP2;ratioP2;P2;SDS_P1;SDS_P2;PMS_P1;PMS_P2;Temp;Humidity;BMP_temperature;BMP_pressure;BME280_temperature;BME280_humidity;BME280_pressure;Samples;Min_cycle;Max_cycle;Signal;HPM_P1;HPM_P2
2022/06/19 00:00:51;;;;;;;6.32;1.90;;;27.50;61.20;;;;;;5071220;28;20173;-76
2022/06/19 00:03:41;;;;;;;9.25;2.45;;;27.60;60.70;;;;;;5067392;28;20205;-77
2022/06/19 00:06:10;;;;;;;5.18;2.00;;;27.70;60.00;;;;;;5065097;28;20234;-78
2022/06/19 00:08:38;;;;;;;6.32;2.05;;;27.90;60.00;;;;;;5091006;28;20176;-76
2022/06/19 00:11:05;;;;;;;4.38;2.05;;;28.00;59.80;;;;;;5093872;28;20226;-77
2022/06/19 00:13:31;;;;;;;7.70;2.35;;;28.10;59.50;;;;;;5089441;28;20199;-77
2022/06/19 00:15:59;;;;;;;10.48;2.60;;;28.20;59.10;;;;;;5076674;28;20207;-78
2022/06/19 00:18:25;;;;;;;7.38;2.10;;;28.30;59.00;;;;;;5075743;28;20204;-78
2022/06/19 00:20:51;;;;;;;6.38;2.33;;;28.40;58.80;;;;;;5073400;28;20211;-77
2022/06/19 00:23:17;;;;;;;6.40;2.30;;;28.40;58.50;;;;;;5078419;28;20215;-70
2022/06/19 00:25:42;;;;;;;9.82;2.95;;;28.50;58.20;;;;;;5092512;28;20180;-68
2022/06/19 00:28:08;;;;;;;5.60;2.05;;;28.60;57.90;;;;;;5092819;28;20264;-70
2022/06/19 00:30:38;;;;;;;7.00;2.17;;;28.60;57.80;;;;;;5096996;28;20234;-71
2022/06/19 00:33:04;;;;;;;7.90;2.30;;;28.70;57.60;;;;;;5092893;28;20189;-69
2022/06/19 00:35:32;;;;;;;4.78;1.95;;;28.80;57.50;;;;;;5093206;28;20177;-71
2022/06/19 00:37:58;;;;;;;6.32;2.10;;;28.80;57.30;;;;;;5092129;28;20173;-69
2022/06/19 00:40:26;;;;;;;6.25;2.00;;;28.90;57.10;;;;;;5098445;28;20195;-69
2022/06/19 00:42:54;;;;;;;10.55;3.00;;;29.00;57.00;;;;;;5092735;28;20198;-71
2022/06/19 00:45:38;;;;;;;8.20;2.60;;;29.00;56.80;;;;;;5091947;28;20173;-71
2022/06/19 00:48:18;;;;;;;7.43;2.55;;;29.10;56.50;;;;;;5075157;28;20177;-80
2022/06/19 00:50:48;;;;;;;7.80;2.08;;;29.10;56.40;;;;;;5072861;28;20200;-78
2022/06/19 00:53:20;;;;;;;7.63;2.20;;;29.10;56.30;;;;;;5074248;28;20176;-78
2022/06/19 00:55:50;;;;;;;5.90;2.17;;;29.10;56.20;;;;;;5073289;28;20201;-76
2022/06/19 00:58:34;;;;;;;8.50;2.75;;;29.10;56.00;;;;;;5070606;28;20192;-79
2022/06/19 01:01:16;;;;;;;9.98;2.28;;;29.10;55.80;;;;;;5069952;28;20207;-77
2022/06/19 01:03:53;;;;;;;5.45;2.22;;;29.10;55.80;;;;;;5064390;28;20212;-77
2022/06/19 01:06:20;;;;;;;6.15;2.00;;;29.10;55.80;;;;;;5070693;28;20255;-73
2022/06/19 01:08:47;;;;;;;6.22;2.30;;;29.10;55.90;;;;;;5070860;28;20177;-75
2022/06/19 01:11:16;;;;;;;5.25;2.20;;;29.10;55.80;;;;;;5064315;28;20207;-75
2022/06/19 01:13:44;;;;;;;7.00;2.63;;;29.10;55.80;;;;;;5070731;28;20181;-74
2022/06/19 01:16:14;;;;;;;5.65;2.35;;;29.10;55.80;;;;;;5068960;28;20196;-75
2022/06/19 01:18:41;;;;;;;6.88;2.40;;;29.00;55.70;;;;;;5073337;28;20177;-76
2022/06/19 01:21:32;;;;;;;6.72;2.83;;;29.10;55.70;;;;;;5080038;28;20176;-76
2022/06/19 01:24:16;;;;;;;10.10;2.30;;;29.00;55.60;;;;;;5081758;28;20205;-77
2022/06/19 01:26:46;;;;;;;4.78;2.05;;;29.00;55.60;;;;;;5066084;28;20266;-74
2022/06/19 01:29:14;;;;;;;6.88;2.38;;;29.00;56.20;;;;;;5073820;28;20197;-74
2022/06/19 01:31:53;;;;;;;6.50;2.42;;;29.00;55.60;;;;;;5082342;28;20253;-77
2022/06/19 01:34:32;;;;;;;8.10;2.40;;;29.00;55.70;;;;;;5084353;28;20184;-75
2022/06/19 01:37:15;;;;;;;8.43;2.28;;;29.00;55.60;;;;;;5072779;28;20176;-75
2022/06/19 01:39:50;;;;;;;8.02;2.38;;;28.90;55.50;;;;;;5071066;28;20180;-76
2022/06/19 01:42:17;;;;;;;8.85;2.20;;;28.90;55.50;;;;;;5071125;28;20208;-79
2022/06/19 01:44:47;;;;;;;7.63;2.30;;;28.90;55.50;;;;;;5068087;28;20467;-78
2022/06/19 01:47:14;;;;;;;6.45;2.13;;;28.90;55.50;;;;;;5069576;28;20270;-77
2022/06/19 01:49:44;;;;;;;6.07;2.15;;;28.90;55.50;;;;;;5064470;28;20219;-78
2022/06/19 01:52:12;;;;;;;3.95;2.17;;;28.80;55.50;;;;;;5076527;28;20191;-76
2022/06/19 01:54:43;;;;;;;4.05;2.10;;;28.80;55.50;;;;;;5078115;28;20196;-79
2022/06/19 01:57:13;;;;;;;9.40;2.47;;;28.80;55.60;;;;;;5071218;28;20246;-76
2022/06/19 01:59:42;;;;;;;6.57;2.28;;;28.80;55.60;;;;;;5067379;28;20185;-78
2022/06/19 02:02:10;;;;;;;7.60;2.40;;;28.80;55.60;;;;;;5073482;28;20184;-77
2022/06/19 02:04:36;;;;;;;5.93;2.28;;;28.80;55.60;;;;;;5068907;28;20291;-75
2022/06/19 02:07:08;;;;;;;7.72;2.55;;;28.70;55.70;;;;;;5071352;28;20394;-77
2022/06/19 02:09:37;;;;;;;6.50;2.28;;;28.70;55.70;;;;;;5084624;28;20180;-77
2022/06/19 02:12:07;;;;;;;6.57;3.00;;;28.70;55.70;;;;;;5072086;28;20259;-74
2022/06/19 02:14:34;;;;;;;6.78;2.08;;;28.60;55.70;;;;;;5074091;28;20195;-76
2022/06/19 02:17:06;;;;;;;6.75;2.40;;;28.60;55.70;;;;;;5070283;28;20188;-75
2022/06/19 02:19:34;;;;;;;7.13;2.35;;;28.60;55.70;;;;;;5069454;28;20213;-75
2022/06/19 02:22:00;;;;;;;7.63;2.38;;;28.60;55.70;;;;;;5086560;28;20178;-77
2022/06/19 02:24:27;;;;;;;5.35;2.20;;;28.50;55.70;;;;;;5067591;28;20254;-77
2022/06/19 02:26:55;;;;;;;6.55;2.15;;;28.50;55.70;;;;;;5071852;28;20426;-77
2022/06/19 02:29:21;;;;;;;6.80;2.28;;;28.50;55.70;;;;;;5069318;28;20177;-78
2022/06/19 02:31:51;;;;;;;5.03;2.40;;;28.50;55.70;;;;;;5071397;28;20188;-76
2022/06/19 02:34:27;;;;;;;8.35;2.20;;;28.40;55.80;;;;;;5070407;28;20180;-75
2022/06/19 02:36:58;;;;;;;6.95;2.15;;;28.50;55.80;;;;;;5066474;28;20172;-75
2022/06/19 02:39:35;;;;;;;5.95;2.20;;;28.40;55.70;;;;;;5071568;28;20287;-76
2022/06/19 02:42:27;;;;;;;5.93;2.10;;;28.40;55.70;;;;;;5074250;28;20216;-74
2022/06/19 02:44:56;;;;;;;6.55;2.30;;;28.40;55.70;;;;;;5072388;28;20231;-77
2022/06/19 02:47:26;;;;;;;8.23;2.58;;;28.40;55.60;;;;;;5077532;28;20187;-78
2022/06/19 02:49:52;;;;;;;7.32;2.45;;;28.30;55.60;;;;;;5073503;28;20499;-78
2022/06/19 02:52:18;;;;;;;5.28;2.00;;;28.40;55.60;;;;;;5072273;28;20200;-76
2022/06/19 02:54:46;;;;;;;8.77;2.42;;;28.30;55.60;;;;;;5069789;28;20177;-77
2022/06/19 02:57:16;;;;;;;10.23;2.30;;;28.30;55.50;;;;;;5070113;28;20195;-77
2022/06/19 02:59:41;;;;;;;7.55;2.33;;;28.30;55.50;;;;;;5073382;28;20200;-77
2022/06/19 03:02:08;;;;;;;6.22;2.40;;;28.30;55.40;;;;;;5073131;28;20183;-76
2022/06/19 03:04:43;;;;;;;4.78;2.47;;;28.30;55.40;;;;;;5070456;28;20195;-78
2022/06/19 03:07:09;;;;;;;9.02;2.60;;;28.30;55.40;;;;;;5071377;28;20196;-77
2022/06/19 03:09:35;;;;;;;7.53;2.30;;;28.30;55.40;;;;;;5067873;28;20192;-76
2022/06/19 03:12:03;;;;;;;5.43;2.30;;;28.30;55.30;;;;;;5064032;28;20192;-75
2022/06/19 03:14:29;;;;;;;4.60;2.10;;;28.30;55.80;;;;;;5070803;28;20172;-76
2022/06/19 03:16:54;;;;;;;8.95;2.90;;;28.30;55.30;;;;;;5067690;28;20177;-79
2022/06/19 03:19:22;;;;;;;6.45;2.30;;;28.30;55.20;;;;;;5068648;28;20197;-74
2022/06/19 03:21:49;;;;;;;8.15;2.15;;;28.30;55.20;;;;;;5085190;28;20758;-75
2022/06/19 03:24:15;;;;;;;10.40;2.38;;;28.30;55.20;;;;;;5066227;28;20256;-77
2022/06/19 03:26:41;;;;;;;7.65;2.40;;;28.30;55.20;;;;;;5058725;28;20221;-77
2022/06/19 03:29:07;;;;;;;8.90;2.80;;;28.30;55.20;;;;;;5069169;28;20184;-75
2022/06/19 03:31:32;;;;;;;7.30;2.30;;;28.30;55.70;;;;;;5068829;28;20276;-76
2022/06/19 03:33:58;;;;;;;6.85;1.98;;;28.30;55.20;;;;;;5061368;28;22740;-76
2022/06/19 03:36:24;;;;;;;4.97;2.13;;;28.30;55.70;;;;;;5066868;28;20193;-76
2022/06/19 03:38:50;;;;;;;7.47;2.50;;;28.20;55.10;;;;;;5070565;28;20279;-75
2022/06/19 03:41:18;;;;;;;4.82;2.20;;;28.20;55.10;;;;;;5065741;28;20292;-75
2022/06/19 03:43:43;;;;;;;7.28;2.50;;;28.30;55.20;;;;;;5060277;28;20200;-75
2022/06/19 03:46:17;;;;;;;5.97;2.50;;;28.20;55.80;;;;;;5066343;28;20193;-76
2022/06/19 03:48:45;;;;;;;7.97;2.28;;;28.20;55.60;;;;;;5068921;28;20237;-76
2022/06/19 03:51:11;;;;;;;6.00;2.47;;;28.10;55.50;;;;;;5063363;28;20180;-76
2022/06/19 03:53:39;;;;;;;7.10;2.78;;;28.00;55.80;;;;;;5076258;28;20193;-77
2022/06/19 03:56:06;;;;;;;5.82;2.65;;;27.90;55.90;;;;;;5055894;28;20177;-75
2022/06/19 03:58:47;;;;;;;6.82;3.05;;;27.80;56.20;;;;;;5071945;28;20215;-75
2022/06/19 04:01:22;;;;;;;8.85;3.28;;;27.70;56.50;;;;;;5068841;28;20279;-76
2022/06/19 04:03:51;;;;;;;7.43;3.42;;;27.50;57.20;;;;;;5068927;28;20283;-74
2022/06/19 04:06:22;;;;;;;10.13;3.60;;;27.30;57.60;;;;;;5066865;28;20208;-75
2022/06/19 04:08:50;;;;;;;8.40;3.55;;;27.10;59.20;;;;;;5066853;28;20173;-76
2022/06/19 04:11:20;;;;;;;11.38;4.05;;;26.80;61.10;;;;;;5069552;28;20291;-74
2022/06/19 04:13:46;;;;;;;8.55;3.83;;;26.60;64.90;;;;;;5077710;28;20235;-76
2022/06/19 04:16:20;;;;;;;6.53;3.42;;;26.30;65.60;;;;;;5071132;28;20185;-77
2022/06/19 04:18:49;;;;;;;9.10;3.67;;;25.90;66.30;;;;;;5056841;28;20208;-76
2022/06/19 04:21:21;;;;;;;5.72;2.83;;;25.60;67.50;;;;;;5069027;28;20176;-76
2022/06/19 04:23:47;;;;;;;6.30;2.70;;;25.30;67.40;;;;;;5072269;28;20201;-76
2022/06/19 04:26:15;;;;;;;3.30;2.08;;;25.00;68.60;;;;;;5070953;28;20272;-76
2022/06/19 04:28:41;;;;;;;7.70;2.85;;;24.70;68.50;;;;;;5071272;28;20443;-74
2022/06/19 04:31:08;;;;;;;6.68;2.55;;;24.40;70.90;;;;;;5072763;28;20295;-76
2022/06/19 04:33:37;;;;;;;6.63;2.20;;;24.20;73.60;;;;;;5072116;28;20195;-76
2022/06/19 04:36:07;;;;;;;2.88;1.58;;;23.90;71.10;;;;;;5074762;28;20176;-77
2022/06/19 04:38:35;;;;;;;3.95;1.60;;;23.70;71.50;;;;;;5072032;28;20270;-76
2022/06/19 04:41:01;;;;;;;7.68;1.88;;;23.50;71.00;;;;;;5070004;28;20188;-76
2022/06/19 04:43:26;;;;;;;2.80;1.60;;;23.30;71.40;;;;;;5072359;28;20271;-76
2022/06/19 04:46:00;;;;;;;5.40;1.92;;;23.20;71.60;;;;;;5074022;28;20176;-75
2022/06/19 04:48:25;;;;;;;4.80;1.90;;;23.00;72.50;;;;;;5072051;28;20177;-76
2022/06/19 04:50:53;;;;;;;7.20;2.33;;;22.80;71.70;;;;;;5072510;28;20183;-76
2022/06/19 04:53:19;;;;;;;4.72;1.90;;;22.70;74.20;;;;;;5068647;28;20176;-72
2022/06/19 04:55:45;;;;;;;7.30;2.10;;;22.50;75.20;;;;;;5073992;28;20207;-76
2022/06/19 04:58:12;;;;;;;4.07;1.98;;;22.30;74.00;;;;;;5071964;28;20213;-75
2022/06/19 05:00:40;;;;;;;5.28;1.90;;;22.20;74.40;;;;;;5071748;28;20176;-74
2022/06/19 05:03:07;;;;;;;7.65;2.28;;;22.10;74.00;;;;;;5072409;28;20180;-76
2022/06/19 05:05:33;;;;;;;7.18;1.98;;;22.00;74.40;;;;;;5081519;28;20177;-76
2022/06/19 05:07:59;;;;;;;5.72;2.58;;;21.90;74.10;;;;;;5073018;28;20200;-75
2022/06/19 05:10:25;;;;;;;7.93;2.50;;;21.80;74.50;;;;;;5074707;28;20351;-76
2022/06/19 05:13:02;;;;;;;5.13;2.20;;;21.70;74.60;;;;;;5071705;28;20176;-75
2022/06/19 05:15:28;;;;;;;8.63;2.30;;;21.70;76.40;;;;;;5066687;28;20189;-75
2022/06/19 05:17:56;;;;;;;3.85;2.25;;;21.60;75.70;;;;;;5072675;28;20177;-75
2022/06/19 05:20:22;;;;;;;6.80;2.70;;;21.60;75.70;;;;;;5072240;28;20165;-76
2022/06/19 05:22:47;;;;;;;5.20;2.47;;;21.50;75.30;;;;;;5069570;28;20215;-74
2022/06/19 05:25:15;;;;;;;7.10;3.20;;;21.50;76.00;;;;;;5073602;28;20203;-74
2022/06/19 05:27:41;;;;;;;9.80;3.75;;;21.40;76.90;;;;;;5074673;28;20204;-75
2022/06/19 05:30:09;;;;;;;10.10;3.53;;;21.40;78.20;;;;;;5073972;28;20183;-77
2022/06/19 05:32:35;;;;;;;6.85;2.80;;;21.40;77.80;;;;;;5073256;28;20219;-76
2022/06/19 05:35:04;;;;;;;8.70;3.80;;;21.30;78.30;;;;;;5065629;28;20200;-75
2022/06/19 05:37:29;;;;;;;7.60;2.83;;;21.30;80.20;;;;;;5072509;28;20404;-76
2022/06/19 05:39:56;;;;;;;7.63;3.63;;;21.20;80.10;;;;;;5072979;28;20200;-76
2022/06/19 05:42:22;;;;;;;7.97;3.63;;;21.20;79.30;;;;;;5070892;28;20184;-76
2022/06/19 05:44:47;;;;;;;4.57;2.90;;;21.10;81.10;;;;;;5072524;28;20204;-75
2022/06/19 05:47:15;;;;;;;5.03;3.10;;;21.10;80.20;;;;;;5072296;28;20174;-71
2022/06/19 05:49:43;;;;;;;8.32;3.05;;;21.10;80.20;;;;;;5065969;28;20177;-72
2022/06/19 05:52:18;;;;;;;6.15;2.88;;;21.10;81.20;;;;;;5068008;28;20177;-72
2022/06/19 05:54:45;;;;;;;4.82;2.55;;;21.10;81.80;;;;;;5063836;28;20191;-71
2022/06/19 05:57:11;;;;;;;5.90;2.65;;;21.10;81.40;;;;;;5066621;28;20268;-72
2022/06/19 05:59:39;;;;;;;4.93;2.40;;;21.10;81.70;;;;;;5069745;28;20348;-72
2022/06/19 06:02:06;;;;;;;7.18;2.60;;;21.10;81.30;;;;;;5069083;28;20261;-71
2022/06/19 06:04:32;;;;;;;6.97;3.28;;;21.10;82.00;;;;;;5071051;28;20212;-72
2022/06/19 06:07:00;;;;;;;8.00;2.70;;;21.10;83.20;;;;;;5066900;28;20197;-72
2022/06/19 06:09:26;;;;;;;7.40;2.50;;;21.10;81.70;;;;;;5072305;28;20168;-71
2022/06/19 06:11:51;;;;;;;3.80;1.98;;;21.10;81.40;;;;;;5068042;28;20314;-68
2022/06/19 06:14:21;;;;;;;5.53;2.13;;;21.10;81.40;;;;;;5066575;28;20196;-71
2022/06/19 06:16:46;;;;;;;12.10;2.45;;;21.10;81.20;;;;;;5071197;28;20248;-71
2022/06/19 06:19:12;;;;;;;3.90;1.90;;;21.10;82.10;;;;;;5069036;28;20277;-72
2022/06/19 06:21:40;;;;;;;6.70;2.40;;;21.10;81.20;;;;;;5072534;28;20173;-70
2022/06/19 06:24:05;;;;;;;5.65;2.30;;;21.10;82.00;;;;;;5071104;28;20287;-72
2022/06/19 06:26:32;;;;;;;4.97;2.20;;;21.20;81.70;;;;;;5068006;28;20197;-70
2022/06/19 06:29:01;;;;;;;5.10;2.45;;;21.20;81.40;;;;;;5069167;28;20170;-72
2022/06/19 06:31:27;;;;;;;6.13;2.42;;;21.20;82.50;;;;;;5069313;28;20177;-72
2022/06/19 06:33:57;;;;;;;8.93;2.72;;;21.20;81.40;;;;;;5068835;28;20207;-69
2022/06/19 06:36:23;;;;;;;6.93;2.58;;;21.20;81.90;;;;;;5062203;28;20181;-72
2022/06/19 06:38:53;;;;;;;5.63;2.33;;;21.20;81.00;;;;;;5069597;28;20191;-71
2022/06/19 06:41:22;;;;;;;6.30;2.40;;;21.10;80.90;;;;;;5068202;28;20203;-71
2022/06/19 06:43:48;;;;;;;5.63;1.92;;;21.10;80.70;;;;;;5074943;28;20222;-71
2022/06/19 06:46:24;;;;;;;3.75;2.03;;;21.00;80.70;;;;;;5063610;28;20196;-72
2022/06/19 06:48:53;;;;;;;5.28;2.05;;;21.00;81.90;;;;;;5071393;28;20173;-71
2022/06/19 06:51:24;;;;;;;6.50;2.20;;;21.00;82.00;;;;;;5067305;28;20195;-72
2022/06/19 06:53:51;;;;;;;6.15;2.38;;;21.00;81.90;;;;;;5068747;28;20192;-72
2022/06/19 06:56:17;;;;;;;6.50;1.90;;;21.00;81.80;;;;;;5070341;28;20245;-74
2022/06/19 06:58:45;;;;;;;6.82;2.60;;;21.00;81.60;;;;;;5071508;28;20305;-71
2022/06/19 07:01:16;;;;;;;5.78;2.33;;;21.00;81.70;;;;;;5068077;28;20187;-72
2022/06/19 07:03:45;;;;;;;8.52;2.72;;;21.10;81.80;;;;;;5073099;28;20204;-72
2022/06/19 07:06:14;;;;;;;5.80;2.22;;;21.10;82.00;;;;;;5072080;28;20286;-72
2022/06/19 07:08:42;;;;;;;5.25;1.98;;;21.10;81.90;;;;;;5069536;28;20191;-72
2022/06/19 07:11:16;;;;;;;3.10;1.65;;;21.20;81.70;;;;;;5071944;28;20208;-72
2022/06/19 07:13:43;;;;;;;5.65;2.00;;;21.20;82.40;;;;;;5069043;28;20177;-72
2022/06/19 07:16:11;;;;;;;6.88;2.17;;;21.30;82.20;;;;;;5070009;28;20185;-70
2022/06/19 07:18:36;;;;;;;7.10;2.10;;;21.30;82.30;;;;;;5062086;28;20200;-72
2022/06/19 07:21:02;;;;;;;5.95;2.30;;;21.40;82.70;;;;;;5071281;28;20196;-69
2022/06/19 07:23:30;;;;;;;4.03;2.08;;;21.40;82.60;;;;;;5064458;28;20288;-72
2022/06/19 07:25:56;;;;;;;5.25;1.90;;;21.50;82.90;;;;;;5066846;28;20253;-78
2022/06/19 07:28:21;;;;;;;7.57;2.70;;;21.60;83.00;;;;;;5066851;28;20177;-85
2022/06/19 07:30:47;;;;;;;8.85;2.70;;;21.70;82.80;;;;;;5068764;28;20196;-79
2022/06/19 07:33:15;;;;;;;6.00;2.05;;;21.70;82.30;;;;;;5089179;28;20192;-81
2022/06/19 07:35:41;;;;;;;5.90;2.20;;;21.70;82.30;;;;;;5070902;28;20176;-76
2022/06/19 07:38:06;;;;;;;6.45;1.95;;;21.80;82.00;;;;;;5071943;28;20226;-80
2022/06/19 07:40:32;;;;;;;5.22;2.17;;;21.70;81.60;;;;;;5073110;28;20425;-82
2022/06/19 07:42:58;;;;;;;8.38;2.40;;;21.70;82.60;;;;;;5071224;28;20302;-79
2022/06/19 07:45:23;;;;;;;5.78;2.30;;;21.60;83.10;;;;;;5069105;28;20190;-81
2022/06/19 07:50:33;;;;;;;5.97;2.30;;;21.60;83.20;;;;;;5070112;28;20266;-82
2022/06/19 07:53:01;;;;;;;7.47;2.33;;;21.60;83.00;;;;;;5074510;28;20173;-78
2022/06/19 07:55:30;;;;;;;5.45;2.30;;;21.70;82.70;;;;;;5086276;28;20228;-77
2022/06/19 07:57:59;;;;;;;5.72;2.58;;;21.70;82.50;;;;;;5079154;28;20177;-80
2022/06/19 08:00:32;;;;;;;9.23;2.30;;;21.70;82.60;;;;;;5080041;28;20173;-80
2022/06/19 08:02:58;;;;;;;7.43;2.85;;;21.80;82.40;;;;;;5065426;28;20238;-80
2022/06/19 08:05:29;;;;;;;7.45;2.30;;;21.70;82.70;;;;;;5070665;28;20204;-80
2022/06/19 08:07:57;;;;;;;4.40;1.80;;;21.80;82.40;;;;;;5069036;28;20178;-78
2022/06/19 08:10:36;;;;;;;7.97;2.67;;;21.80;82.30;;;;;;5073836;28;20203;-80
2022/06/19 08:13:05;;;;;;;5.95;2.75;;;21.90;82.90;;;;;;5073754;28;20192;-79
2022/06/19 08:15:34;;;;;;;6.68;2.60;;;21.90;82.60;;;;;;5060635;28;20211;-79
2022/06/19 08:18:03;;;;;;;6.72;2.67;;;21.90;82.80;;;;;;5079798;28;20168;-78
2022/06/19 08:20:33;;;;;;;4.93;1.75;;;22.00;82.90;;;;;;5076505;28;20172;-77
2022/06/19 08:23:03;;;;;;;5.47;1.90;;;22.00;82.50;;;;;;5074856;28;20203;-82
2022/06/19 08:25:28;;;;;;;5.28;2.25;;;22.10;82.60;;;;;;5079634;28;20248;-77
2022/06/19 08:27:54;;;;;;;8.50;2.75;;;22.10;82.40;;;;;;5071802;28;20208;-79
2022/06/19 08:30:26;;;;;;;4.90;2.42;;;22.20;82.50;;;;;;5080513;28;20168;-74
2022/06/19 08:32:56;;;;;;;4.15;2.20;;;22.30;82.50;;;;;;5072536;28;20173;-77
2022/06/19 08:35:25;;;;;;;4.75;2.42;;;22.30;82.20;;;;;;5063688;28;20196;-79
2022/06/19 08:37:58;;;;;;;9.73;3.00;;;22.40;82.10;;;;;;5083277;28;20181;-75
2022/06/19 08:40:29;;;;;;;10.48;2.85;;;22.40;81.50;;;;;;5090052;28;20172;-78
2022/06/19 08:43:01;;;;;;;7.38;2.85;;;22.50;81.40;;;;;;5074675;28;20205;-76
2022/06/19 08:45:29;;;;;;;6.38;2.85;;;22.60;80.80;;;;;;5074106;28;20215;-74
2022/06/19 08:48:23;;;;;;;6.22;2.60;;;22.70;80.40;;;;;;5075254;28;20196;-76
2022/06/19 08:50:59;;;;;;;4.68;2.33;;;22.80;79.70;;;;;;5072585;28;20195;-75
2022/06/19 08:53:58;;;;;;;5.07;2.15;;;22.80;79.50;;;;;;5071017;28;20192;-76
2022/06/19 08:56:47;;;;;;;4.60;1.90;;;22.90;79.10;;;;;;5067448;28;20203;-76
2022/06/19 08:59:30;;;;;;;7.97;2.08;;;23.00;77.60;;;;;;5071047;28;20169;-77
2022/06/19 09:02:14;;;;;;;9.77;2.70;;;23.10;78.40;;;;;;5081415;28;20260;-76
2022/06/19 09:07:42;;;;;;;5.25;2.30;;;23.20;77.10;;;;;;5066657;28;20207;-75
2022/06/19 09:10:32;;;;;;;7.90;2.58;;;23.20;77.20;;;;;;5072442;28;20251;-77
2022/06/19 09:13:22;;;;;;;6.80;2.53;;;23.30;76.40;;;;;;5072756;28;20189;-75
2022/06/19 09:16:12;;;;;;;5.80;2.53;;;23.40;76.40;;;;;;5076532;28;20205;-75
2022/06/19 09:18:44;;;;;;;6.47;2.47;;;23.50;76.10;;;;;;5077147;28;20176;-77
2022/06/19 09:21:26;;;;;;;6.78;2.83;;;23.50;76.10;;;;;;5067321;28;20168;-78
2022/06/19 09:24:29;;;;;;;6.18;2.45;;;23.50;75.80;;;;;;5069418;28;20208;-76
2022/06/19 09:26:58;;;;;;;6.35;2.95;;;23.60;75.80;;;;;;5052988;28;20214;-74
2022/06/19 09:29:27;;;;;;;5.07;2.25;;;23.60;75.70;;;;;;5083542;28;20180;-78
2022/06/19 09:32:09;;;;;;;6.45;2.35;;;23.70;75.80;;;;;;5059432;28;20185;-76
2022/06/19 09:34:41;;;;;;;6.25;2.40;;;23.70;75.40;;;;;;5070383;28;20180;-74
2022/06/19 09:37:27;;;;;;;11.32;2.83;;;23.80;75.60;;;;;;5063361;28;20322;-76
2022/06/19 09:40:02;;;;;;;7.15;2.42;;;23.90;74.30;;;;;;5073425;28;20199;-75
2022/06/19 09:42:43;;;;;;;8.10;2.50;;;23.90;74.40;;;;;;5058804;28;20196;-77
2022/06/19 09:45:24;;;;;;;8.48;2.72;;;24.00;74.50;;;;;;5069180;28;20287;-75
2022/06/19 09:48:07;;;;;;;5.65;2.65;;;24.10;74.40;;;;;;5070121;28;20179;-76
2022/06/19 09:50:36;;;;;;;9.95;3.20;;;24.20;74.30;;;;;;5073489;28;20176;-72
2022/06/19 09:53:34;;;;;;;8.13;2.80;;;24.30;74.40;;;;;;5079491;28;20184;-78
2022/06/19 09:56:12;;;;;;;5.53;2.85;;;24.30;73.70;;;;;;5074897;28;20248;-79
2022/06/19 09:58:47;;;;;;;6.47;2.47;;;24.50;73.90;;;;;;5064482;28;20196;-77
2022/06/19 10:01:13;;;;;;;5.00;2.30;;;24.60;74.50;;;;;;5072001;28;20176;-74
2022/06/19 10:03:44;;;;;;;7.53;2.05;;;24.70;74.70;;;;;;5069920;28;20203;-78
2022/06/19 10:06:21;;;;;;;8.35;2.78;;;24.90;74.70;;;;;;5072961;28;20168;-74
2022/06/19 10:08:53;;;;;;;5.45;2.67;;;25.10;73.80;;;;;;5069551;28;20168;-75
2022/06/19 10:11:29;;;;;;;6.15;2.03;;;25.20;73.20;;;;;;5077278;28;20188;-79
2022/06/19 10:14:09;;;;;;;6.35;2.25;;;25.30;73.30;;;;;;5076806;28;20181;-80
2022/06/19 10:16:56;;;;;;;8.05;2.88;;;25.40;73.30;;;;;;5086845;28;20196;-80
2022/06/19 10:19:37;;;;;;;5.93;2.40;;;25.50;72.50;;;;;;5068958;28;20173;-75
2022/06/19 10:22:34;;;;;;;6.75;2.33;;;25.70;72.70;;;;;;5080282;28;20176;-73
2022/06/19 10:24:59;;;;;;;7.70;2.72;;;25.80;72.00;;;;;;5072092;28;20207;-82
2022/06/19 10:27:43;;;;;;;8.00;2.70;;;25.90;72.80;;;;;;5071752;28;20177;-79
2022/06/19 10:30:15;;;;;;;7.85;2.83;;;26.10;72.00;;;;;;5070080;28;20207;-83
2022/06/19 10:32:50;;;;;;;9.73;2.78;;;26.10;71.90;;;;;;5070819;28;20181;-81
2022/06/19 10:35:40;;;;;;;8.98;3.30;;;26.30;71.40;;;;;;5072418;28;20176;-82
2022/06/19 10:38:24;;;;;;;9.55;3.15;;;26.40;71.40;;;;;;5066352;28;20271;-82
2022/06/19 10:41:04;;;;;;;6.47;3.00;;;26.40;71.70;;;;;;5074535;28;20180;-79
2022/06/19 10:44:01;;;;;;;8.10;3.22;;;26.50;70.70;;;;;;5086002;28;20205;-78
2022/06/19 10:46:30;;;;;;;7.35;2.97;;;26.50;70.70;;;;;;5071194;28;20218;-76
2022/06/19 10:49:30;;;;;;;8.15;3.08;;;26.60;72.00;;;;;;5078944;28;20242;-82
2022/06/19 10:52:20;;;;;;;6.10;2.80;;;26.80;71.40;;;;;;5059888;28;20169;-80
2022/06/19 10:54:59;;;;;;;10.32;3.60;;;27.00;72.60;;;;;;5082157;28;20200;-77
2022/06/19 10:57:36;;;;;;;8.43;3.33;;;27.20;71.40;;;;;;5063848;28;20222;-85
2022/06/19 11:00:09;;;;;;;7.93;2.60;;;27.30;71.60;;;;;;5074520;28;20269;-81
2022/06/19 11:05:48;;;;;;;9.13;3.08;;;27.30;69.50;;;;;;5071076;28;20195;-82
2022/06/19 11:08:15;;;;;;;6.90;3.03;;;27.30;69.90;;;;;;5073011;28;20184;-81
2022/06/19 11:10:51;;;;;;;5.85;3.00;;;27.20;69.50;;;;;;5075337;28;20177;-81
2022/06/19 11:13:19;;;;;;;10.15;2.95;;;27.20;70.10;;;;;;5062870;28;20322;-79
2022/06/19 11:16:02;;;;;;;10.45;2.95;;;27.10;69.20;;;;;;5087604;28;20197;-79
2022/06/19 11:18:28;;;;;;;9.27;2.78;;;27.00;68.50;;;;;;5070061;28;20169;-82
2022/06/19 11:20:56;;;;;;;5.70;2.60;;;26.90;68.90;;;;;;5078728;28;20194;-78
2022/06/19 11:23:25;;;;;;;8.00;2.63;;;26.80;68.90;;;;;;5067998;28;20172;-80
2022/06/19 11:26:06;;;;;;;8.77;3.42;;;26.70;68.90;;;;;;5065856;28;20192;-78
2022/06/19 11:29:08;;;;;;;6.28;2.72;;;26.60;68.70;;;;;;5067091;28;20199;-78
2022/06/19 11:31:36;;;;;;;7.00;2.53;;;26.50;68.50;;;;;;5064370;28;20189;-79
2022/06/19 11:37:32;;;;;;;5.10;2.67;;;26.50;69.10;;;;;;5071131;28;20207;-77
2022/06/19 11:39:58;;;;;;;10.30;2.88;;;26.40;68.70;;;;;;5082278;28;20191;-83
2022/06/19 11:42:30;;;;;;;6.75;2.65;;;26.40;69.30;;;;;;5071630;28;20223;-80
2022/06/19 11:45:16;;;;;;;6.55;2.80;;;26.40;69.60;;;;;;5077350;28;20200;-79
2022/06/19 11:47:48;;;;;;;6.18;2.55;;;26.50;69.90;;;;;;5074290;28;20184;-89
2022/06/19 11:50:22;;;;;;;5.68;3.05;;;26.60;69.80;;;;;;5073119;28;20173;-81
2022/06/19 11:52:50;;;;;;;8.52;2.60;;;26.60;69.40;;;;;;5071523;28;20404;-81
2022/06/19 11:55:39;;;;;;;5.63;2.88;;;26.70;69.70;;;;;;5076305;28;20196;-79
2022/06/19 11:58:14;;;;;;;7.03;3.05;;;26.80;69.40;;;;;;5074820;28;20172;-83
2022/06/19 12:00:43;;;;;;;7.43;2.75;;;26.90;69.30;;;;;;5066134;28;20169;-81
2022/06/19 12:03:36;;;;;;;6.95;2.63;;;26.90;69.10;;;;;;5066120;28;20177;-84
2022/06/19 12:06:09;;;;;;;7.55;3.03;;;27.00;68.80;;;;;;5064178;28;20185;-79
2022/06/19 12:08:54;;;;;;;7.70;3.10;;;27.00;68.80;;;;;;5072659;28;20253;-80
2022/06/19 12:11:42;;;;;;;4.50;2.67;;;27.00;68.80;;;;;;5069703;28;20173;-80
2022/06/19 12:14:11;;;;;;;6.57;2.65;;;27.10;69.00;;;;;;5071088;28;20193;-86
2022/06/19 12:16:38;;;;;;;7.20;2.90;;;27.30;69.60;;;;;;5068567;28;20196;-85
2022/06/19 12:19:28;;;;;;;6.43;2.80;;;27.40;69.60;;;;;;5075266;28;20176;-83
2022/06/19 12:22:01;;;;;;;6.15;2.70;;;27.70;69.20;;;;;;5074117;28;20232;-81
2022/06/19 12:24:41;;;;;;;4.93;2.70;;;27.90;69.70;;;;;;5074695;28;20264;-78
2022/06/19 12:27:11;;;;;;;6.43;2.90;;;28.10;69.20;;;;;;5070143;28;20187;-80
2022/06/19 12:29:43;;;;;;;4.93;2.58;;;28.40;68.90;;;;;;5071885;28;20170;-81
2022/06/19 12:32:43;;;;;;;7.93;3.22;;;28.60;68.90;;;;;;5073963;28;20226;-79
2022/06/19 12:35:28;;;;;;;9.52;3.50;;;28.90;67.60;;;;;;5087961;28;20231;-78
2022/06/19 12:37:54;;;;;;;5.47;2.78;;;29.10;67.80;;;;;;5088019;28;20181;-78
2022/06/19 12:40:24;;;;;;;7.93;3.30;;;29.30;68.20;;;;;;5070338;28;20196;-80
2022/06/19 12:43:01;;;;;;;7.70;3.47;;;29.40;66.80;;;;;;5078130;28;20192;-84
2022/06/19 12:45:32;;;;;;;5.68;2.95;;;29.50;64.70;;;;;;5082837;28;20292;-87
2022/06/19 12:48:16;;;;;;;5.47;3.13;;;29.50;65.00;;;;;;5070655;28;20196;-82
2022/06/19 12:50:48;;;;;;;10.13;4.07;;;29.50;64.10;;;;;;5063558;28;20185;-83
2022/06/19 12:53:28;;;;;;;9.77;3.90;;;29.40;63.60;;;;;;5057807;28;20272;-84
2022/06/19 12:56:21;;;;;;;6.45;3.05;;;29.30;63.40;;;;;;5068372;28;20517;-78
2022/06/19 12:59:06;;;;;;;7.45;3.15;;;29.20;63.40;;;;;;5069264;28;20200;-82
2022/06/19 13:01:44;;;;;;;9.38;3.08;;;29.10;63.50;;;;;;5082955;28;20230;-85
2022/06/19 13:04:19;;;;;;;9.35;3.97;;;29.10;63.50;;;;;;5069932;28;20290;-83
2022/06/19 13:06:56;;;;;;;9.30;4.50;;;29.00;63.50;;;;;;5078910;28;20333;-88
2022/06/19 13:09:50;;;;;;;11.02;4.15;;;29.00;63.20;;;;;;5065932;28;20171;-83
2022/06/19 13:12:45;;;;;;;11.65;4.15;;;28.90;63.50;;;;;;5071197;28;20204;-83
2022/06/19 13:15:22;;;;;;;9.60;3.45;;;28.90;63.10;;;;;;5087043;28;20208;-84
2022/06/19 13:17:50;;;;;;;11.55;3.88;;;28.90;63.50;;;;;;5069577;28;20246;-82
2022/06/19 13:20:53;;;;;;;12.30;4.00;;;28.90;63.20;;;;;;5073048;28;20177;-78
2022/06/19 13:23:35;;;;;;;8.75;3.97;;;28.90;62.80;;;;;;5065962;28;20195;-81